Time;durP1;ratioP1;P1;durP2;ratioP2;P2;SDS_P1;SDS_P2;PMS_P1;PMS_P2;Temp;Humidity;BMP_temperature;BMP_pressure;BME280_temperature;BME280_humidity;BME280_pressure;Samples;Min_cycle;Max_cycle;Signal;HPM_P1;HPM_P2
2022/07/15 07:05:00;;;;;;;3.42;1.58;;;15.80;99.90;;;;;;5070674;28;20558;-73
2022/07/15 07:07:25;;;;;;;5.22;2.00;;;15.70;99.90;;;;;;5070603;28;20278;-81
2022/07/15 07:09:51;;;;;;;8.82;1.95;;;16.20;99.90;;;;;;5070461;28;20176;-78
2022/07/15 07:12:17;;;;;;;7.30;1.90;;;15.50;99.90;;;;;;5070599;28;20178;-78
2022/07/15 07:14:43;;;;;;;4.22;2.13;;;15.40;99.90;;;;;;5070333;28;20196;-77
2022/07/15 07:17:08;;;;;;;10.10;2.20;;;15.50;99.90;;;;;;5069186;28;20204;-77
2022/07/15 07:19:34;;;;;;;4.85;2.15;;;15.50;99.90;;;;;;5070428;28;20169;-78
2022/07/15 07:21:59;;;;;;;4.00;1.55;;;15.70;99.90;;;;;;5070443;28;20215;-78
2022/07/15 07:24:25;;;;;;;3.83;2.28;;;15.70;99.90;;;;;;5070175;28;20188;-81
2022/07/15 07:26:51;;;;;;;10.02;2.30;;;16.30;99.90;;;;;;5069071;28;20169;-79
2022/07/15 07:29:22;;;;;;;6.72;1.80;;;16.00;99.90;;;;;;5070510;28;20193;-82
2022/07/15 07:31:48;;;;;;;5.53;1.58;;;15.80;99.90;;;;;;5070259;28;20653;-78
2022/07/15 07:34:14;;;;;;;2.53;2.33;;;15.70;99.90;;;;;;5070169;28;20179;-79
2022/07/15 07:36:39;;;;;;;2.67;1.55;;;15.90;99.90;;;;;;5070163;28;20168;-78
2022/07/15 07:39:05;;;;;;;6.57;1.35;;;15.90;99.90;;;;;;5068668;28;20176;-80
2022/07/15 07:41:31;;;;;;;5.78;1.75;;;16.30;99.90;;;;;;5070083;28;20169;-79
2022/07/15 07:43:56;;;;;;;4.10;1.60;;;16.00;99.90;;;;;;5069863;28;20196;-77
2022/07/15 07:46:22;;;;;;;3.83;1.60;;;16.00;99.90;;;;;;5070070;28;20233;-78
2022/07/15 07:48:48;;;;;;;2.97;1.40;;;16.10;99.90;;;;;;5069877;28;20591;-78
2022/07/15 07:51:14;;;;;;;2.25;2.08;;;16.20;99.90;;;;;;5069855;28;20192;-80
2022/07/15 07:53:40;;;;;;;5.97;1.15;;;16.30;99.90;;;;;;5069728;28;20176;-77
2022/07/15 07:56:06;;;;;;;2.50;1.23;;;16.30;99.90;;;;;;5069706;28;20173;-80
2022/07/15 07:58:32;;;;;;;4.20;1.73;;;16.40;99.90;;;;;;5069550;28;20169;-78
2022/07/15 08:00:57;;;;;;;4.68;1.65;;;16.70;99.90;;;;;;5068162;28;20172;-87
2022/07/15 08:03:23;;;;;;;4.32;1.60;;;16.60;99.90;;;;;;5069228;28;20677;-83
2022/07/15 08:05:49;;;;;;;5.93;1.50;;;16.70;99.90;;;;;;5069518;28;20183;-84
2022/07/15 08:08:20;;;;;;;2.45;1.10;;;16.80;99.90;;;;;;5069301;28;20181;-77
2022/07/15 08:10:48;;;;;;;2.08;1.40;;;16.80;99.90;;;;;;5068110;28;20172;-77
2022/07/15 08:13:14;;;;;;;1.50;1.40;;;16.90;99.90;;;;;;5067970;28;20613;-77
2022/07/15 08:15:40;;;;;;;4.22;1.42;;;17.00;99.90;;;;;;5059885;28;20168;-76
2022/07/15 08:18:06;;;;;;;2.90;1.35;;;17.20;99.90;;;;;;5056039;28;20650;-76
2022/07/15 08:20:32;;;;;;;2.53;1.30;;;17.30;99.90;;;;;;5055985;28;20177;-75
2022/07/15 08:22:58;;;;;;;2.80;1.38;;;17.20;99.90;;;;;;5055826;28;20624;-76
2022/07/15 08:25:28;;;;;;;3.35;2.00;;;17.30;99.90;;;;;;5055873;28;20169;-75
2022/07/15 08:27:54;;;;;;;2.65;1.15;;;17.20;99.90;;;;;;5055799;28;20165;-77
2022/07/15 08:30:20;;;;;;;4.65;1.40;;;17.10;99.90;;;;;;5055827;28;20172;-81
2022/07/15 08:32:46;;;;;;;2.83;1.40;;;17.20;99.90;;;;;;5055825;28;20567;-77
2022/07/15 08:35:11;;;;;;;1.42;1.30;;;17.30;99.90;;;;;;5054428;28;20172;-77
2022/07/15 08:37:37;;;;;;;1.92;1.40;;;17.50;99.90;;;;;;5055690;28;20169;-80
2022/07/15 08:40:06;;;;;;;4.90;1.67;;;17.70;99.90;;;;;;5054355;28;20303;-81
2022/07/15 08:42:31;;;;;;;2.03;1.50;;;17.80;99.90;;;;;;5054280;28;20169;-84
2022/07/15 08:44:57;;;;;;;3.08;1.50;;;18.00;99.90;;;;;;5055488;28;20196;-75
2022/07/15 08:47:25;;;;;;;2.13;1.20;;;18.10;99.90;;;;;;5055463;28;20251;-75
2022/07/15 08:49:56;;;;;;;5.30;1.60;;;18.20;99.90;;;;;;5054190;28;20593;-80
2022/07/15 08:52:23;;;;;;;3.33;1.38;;;18.20;99.90;;;;;;5055396;28;20187;-77
2022/07/15 08:54:49;;;;;;;2.63;1.50;;;18.20;99.90;;;;;;5054101;28;20176;-76
2022/07/15 08:57:14;;;;;;;4.40;2.13;;;18.20;99.90;;;;;;5055441;28;20226;-77
2022/07/15 08:59:42;;;;;;;4.10;1.30;;;18.10;99.90;;;;;;5055290;28;20169;-76
2022/07/15 09:02:08;;;;;;;4.13;2.15;;;17.90;99.90;;;;;;5055259;28;20195;-77
2022/07/15 09:05:15;;;;;;;4.03;1.45;;;17.90;99.90;;;;;;5054908;28;20803;-80
2022/07/15 09:07:54;;;;;;;3.80;1.50;;;17.80;99.90;;;;;;5053938;28;20632;-77
2022/07/15 09:10:42;;;;;;;6.50;1.88;;;17.70;99.90;;;;;;5055143;28;20164;-76
2022/07/15 09:13:08;;;;;;;1.58;1.48;;;17.50;99.90;;;;;;5054923;28;20181;-76
2022/07/15 09:15:36;;;;;;;4.75;1.40;;;17.30;99.90;;;;;;5055000;28;20622;-79
2022/07/15 09:18:06;;;;;;;4.07;1.50;;;17.40;99.90;;;;;;5054907;28;20199;-75
2022/07/15 09:20:32;;;;;;;2.20;1.40;;;17.40;99.90;;;;;;5054860;28;20173;-70
2022/07/15 09:23:00;;;;;;;4.25;1.63;;;17.50;99.90;;;;;;5054844;28;20196;-71
2022/07/15 09:25:28;;;;;;;1.85;1.55;;;17.40;99.90;;;;;;5054760;28;20161;-71
2022/07/15 09:27:54;;;;;;;2.30;1.40;;;17.30;99.90;;;;;;5053720;28;20260;-75
2022/07/15 09:33:43;;;;;;;2.28;1.60;;;17.10;99.90;;;;;;5055063;28;20175;-76
2022/07/15 09:36:27;;;;;;;8.52;2.13;;;17.20;99.90;;;;;;5054655;28;20220;-76
2022/07/15 09:39:05;;;;;;;3.88;1.50;;;17.40;99.90;;;;;;5053370;28;20176;-75
2022/07/15 09:41:37;;;;;;;9.43;1.75;;;17.50;99.90;;;;;;5054537;28;20626;-77
2022/07/15 09:44:14;;;;;;;2.38;1.50;;;17.50;99.90;;;;;;5053101;28;20326;-76
2022/07/15 09:46:49;;;;;;;6.45;3.10;;;17.70;99.90;;;;;;5053176;28;20168;-72
2022/07/15 09:49:29;;;;;;;2.55;1.90;;;17.70;99.90;;;;;;5053023;28;20259;-72
2022/07/15 09:52:00;;;;;;;2.47;1.25;;;17.70;99.90;;;;;;5054280;28;20164;-71
2022/07/15 09:54:33;;;;;;;5.18;1.77;;;17.70;99.90;;;;;;5054126;28;20550;-71
2022/07/15 09:57:04;;;;;;;4.63;1.50;;;17.80;99.90;;;;;;5054179;28;20522;-72
2022/07/15 09:59:32;;;;;;;2.60;1.65;;;18.00;99.90;;;;;;5054207;28;20171;-71
2022/07/15 10:02:02;;;;;;;2.53;1.83;;;18.10;99.90;;;;;;5054051;28;20169;-75
2022/07/15 10:04:32;;;;;;;4.30;1.92;;;18.10;99.90;;;;;;5053646;28;20242;-74
2022/07/15 10:07:04;;;;;;;2.90;1.90;;;18.00;99.90;;;;;;5054064;28;20161;-73
2022/07/15 10:09:34;;;;;;;4.22;2.10;;;17.80;99.90;;;;;;5052800;28;20200;-72
2022/07/15 10:12:24;;;;;;;4.88;1.67;;;17.70;99.90;;;;;;5052680;28;20168;-75
2022/07/15 10:15:09;;;;;;;4.03;1.70;;;17.70;99.90;;;;;;5052466;28;20557;-74
2022/07/15 10:18:23;;;;;;;9.35;2.38;;;17.60;99.90;;;;;;5052428;28;20207;-77
2022/07/15 10:21:15;;;;;;;3.88;2.38;;;17.60;99.90;;;;;;5052593;28;20235;-74
2022/07/15 10:24:08;;;;;;;6.00;2.42;;;17.70;99.90;;;;;;5053406;28;20192;-75
2022/07/15 10:27:01;;;;;;;;;;;;;;;;;;;;;
2022/07/15 10:29:33;;;;;;;5.28;2.53;;;17.70;99.90;;;;;;5053498;28;20168;-74
2022/07/15 10:32:02;;;;;;;7.38;2.88;;;17.70;99.90;;;;;;5053450;28;20164;-74
2022/07/15 10:34:34;;;;;;;4.38;2.20;;;17.80;99.90;;;;;;5053585;28;20286;-75
2022/07/15 10:37:12;;;;;;;1.88;1.77;;;17.90;99.90;;;;;;5052102;28;20180;-75
2022/07/15 10:39:49;;;;;;;5.07;2.60;;;18.10;99.90;;;;;;5053264;28;20196;-75
2022/07/15 10:42:17;;;;;;;3.83;1.90;;;18.40;99.90;;;;;;5053307;28;20176;-75
2022/07/15 10:45:03;;;;;;;4.88;2.53;;;18.70;99.90;;;;;;5053565;28;20678;-80
2022/07/15 10:47:30;;;;;;;2.17;1.98;;;18.90;99.90;;;;;;5051507;28;20225;-78
2022/07/15 10:49:56;;;;;;;3.08;1.90;;;19.20;99.90;;;;;;5052677;28;20188;-78
2022/07/15 10:52:25;;;;;;;3.50;1.80;;;19.50;99.90;;;;;;5052082;28;20221;-77
2022/07/15 10:55:03;;;;;;;7.05;2.53;;;19.90;99.90;;;;;;5052054;28;20173;-78
2022/07/15 10:57:53;;;;;;;2.00;1.80;;;20.00;99.90;;;;;;5052094;28;20653;-80
2022/07/15 11:00:23;;;;;;;2.92;2.20;;;19.50;99.90;;;;;;5053280;28;20168;-81
2022/07/15 11:03:28;;;;;;;5.93;2.35;;;19.30;99.90;;;;;;5051480;28;20184;-80
2022/07/15 11:05:56;;;;;;;5.32;2.28;;;19.30;99.90;;;;;;5051873;28;20172;-80
2022/07/15 11:08:36;;;;;;;7.75;2.17;;;19.40;99.90;;;;;;5053147;28;20160;-80
2022/07/15 11:11:14;;;;;;;2.45;1.90;;;19.50;99.90;;;;;;5053008;28;20173;-82
2022/07/15 11:13:41;;;;;;;10.85;5.15;;;19.50;99.90;;;;;;5052937;28;20199;-88
2022/07/15 11:16:11;;;;;;;3.20;1.75;;;19.70;99.90;;;;;;5051845;28;20534;-87
2022/07/15 11:18:45;;;;;;;1.58;1.48;;;19.60;99.90;;;;;;5053181;28;20302;-83
2022/07/15 11:21:12;;;;;;;1.63;1.52;;;19.60;99.90;;;;;;5053078;28;20248;-82
2022/07/15 11:23:38;;;;;;;3.40;2.03;;;19.60;99.90;;;;;;5052745;28;20196;-76
2022/07/15 11:26:04;;;;;;;4.65;2.15;;;19.40;99.90;;;;;;5054976;28;20168;-80
2022/07/15 11:28:30;;;;;;;6.65;1.85;;;19.60;99.90;;;;;;5059583;28;20168;-78
2022/07/15 11:30:56;;;;;;;4.93;1.85;;;20.10;99.90;;;;;;5055475;28;20172;-77
2022/07/15 11:33:25;;;;;;;2.65;1.90;;;20.20;99.90;;;;;;5052938;28;20536;-84
2022/07/15 11:35:53;;;;;;;6.40;2.00;;;20.20;99.90;;;;;;5052908;28;20214;-82
2022/07/15 11:38:23;;;;;;;5.78;2.30;;;20.10;99.90;;;;;;5052707;28;20523;-81
2022/07/15 11:46:19;;;;;;;4.22;1.92;;;20.20;99.90;;;;;;5052773;28;20163;-76
2022/07/15 11:48:45;;;;;;;3.55;1.85;;;20.30;99.90;;;;;;5051423;28;20169;-76
2022/07/15 11:51:12;;;;;;;2.85;1.70;;;20.20;99.90;;;;;;5055403;28;20169;-76
2022/07/15 11:53:43;;;;;;;2.90;1.60;;;20.20;99.90;;;;;;5056527;28;20538;-78
2022/07/15 11:56:11;;;;;;;2.03;1.70;;;20.00;99.90;;;;;;5056497;28;20172;-77
2022/07/15 11:58:39;;;;;;;3.50;1.48;;;20.00;99.90;;;;;;5056436;28;20539;-78
2022/07/15 12:01:08;;;;;;;2.40;1.80;;;20.00;99.90;;;;;;5056247;28;20198;-78
2022/07/15 12:03:55;;;;;;;5.07;1.60;;;20.20;99.90;;;;;;5055969;28;20240;-80
2022/07/15 12:06:30;;;;;;;3.17;1.67;;;20.60;99.90;;;;;;5056281;28;20165;-83
2022/07/15 12:09:08;;;;;;;6.10;2.08;;;20.60;99.90;;;;;;5056106;28;20164;-77
2022/07/15 12:11:39;;;;;;;4.68;1.70;;;20.60;99.90;;;;;;5056207;28;20161;-80
2022/07/15 12:14:06;;;;;;;8.48;1.98;;;20.50;99.90;;;;;;5056007;28;20215;-80
2022/07/15 12:16:50;;;;;;;1.70;1.60;;;20.60;99.90;;;;;;5056124;28;20169;-76
2022/07/15 12:19:21;;;;;;;14.70;3.10;;;20.60;99.90;;;;;;5056023;28;20172;-78
2022/07/15 12:21:50;;;;;;;4.93;1.65;;;20.30;99.90;;;;;;5055984;28;20222;-78
2022/07/15 12:24:20;;;;;;;4.18;1.60;;;19.90;99.90;;;;;;5054610;28;20201;-80
2022/07/15 12:26:49;;;;;;;4.60;1.55;;;19.70;99.90;;;;;;5054546;28;20168;-78
2022/07/15 12:29:23;;;;;;;4.72;2.25;;;19.50;99.90;;;;;;5055861;28;20164;-81
2022/07/15 12:31:55;;;;;;;4.53;1.60;;;19.40;99.90;;;;;;5055880;28;20619;-77
2022/07/15 12:34:22;;;;;;;2.63;1.30;;;19.40;99.90;;;;;;5055783;28;20634;-77
2022/07/15 12:36:58;;;;;;;3.42;1.45;;;19.60;99.90;;;;;;5055722;28;20188;-77
2022/07/15 12:39:25;;;;;;;5.78;1.60;;;19.70;99.90;;;;;;5055583;28;20592;-80
2022/07/15 12:42:00;;;;;;;1.67;1.58;;;19.90;99.90;;;;;;5055662;28;20307;-81
2022/07/15 12:44:26;;;;;;;5.28;1.40;;;19.90;99.90;;;;;;5055514;28;20783;-77
2022/07/15 12:46:56;;;;;;;1.98;1.38;;;19.90;99.90;;;;;;5055606;28;20169;-78
2022/07/15 12:49:40;;;;;;;2.38;1.80;;;20.00;99.90;;;;;;5054134;28;20531;-79
2022/07/15 12:52:16;;;;;;;5.32;1.48;;;20.00;99.90;;;;;;5055485;28;20165;-78
2022/07/15 12:54:42;;;;;;;2.75;1.23;;;20.20;99.90;;;;;;5055408;28;20164;-73
2022/07/15 12:57:25;;;;;;;2.47;1.50;;;20.30;99.90;;;;;;5055431;28;20649;-72
2022/07/15 13:00:11;;;;;;;2.85;1.40;;;20.00;99.90;;;;;;5053888;28;20168;-72
2022/07/15 13:02:57;;;;;;;2.05;1.35;;;19.80;99.90;;;;;;5054859;28;20169;-75
2022/07/15 13:05:23;;;;;;;1.90;1.63;;;19.30;99.90;;;;;;5055141;28;20186;-73
2022/07/15 13:07:49;;;;;;;1.73;1.30;;;19.10;99.90;;;;;;5055152;28;20684;-76
2022/07/15 13:10:15;;;;;;;4.95;2.63;;;18.80;99.90;;;;;;5054938;28;20168;-74
2022/07/15 13:12:40;;;;;;;2.88;1.52;;;18.90;99.90;;;;;;5055008;28;20289;-77
2022/07/15 13:15:07;;;;;;;3.47;1.65;;;19.00;99.90;;;;;;5053734;28;20168;-76
2022/07/15 13:17:33;;;;;;;4.10;1.65;;;19.20;99.90;;;;;;5053713;28;20172;-71
2022/07/15 13:19:59;;;;;;;2.63;1.50;;;19.40;99.90;;;;;;5054913;28;20298;-73
2022/07/15 13:22:25;;;;;;;4.63;1.83;;;19.60;99.90;;;;;;5053624;28;20165;-72
2022/07/15 13:24:50;;;;;;;3.63;1.60;;;19.70;99.90;;;;;;5054627;28;20633;-71
2022/07/15 13:27:16;;;;;;;7.43;1.67;;;20.10;99.90;;;;;;5054782;28;20168;-71
2022/07/15 13:29:42;;;;;;;3.95;1.48;;;20.30;99.90;;;;;;5053443;28;20622;-74
2022/07/15 13:32:07;;;;;;;1.65;1.33;;;20.40;99.90;;;;;;5053435;28;20169;-74
2022/07/15 13:34:33;;;;;;;2.70;1.33;;;20.50;99.90;;;;;;5054639;28;20230;-74
2022/07/15 13:36:58;;;;;;;3.78;1.38;;;20.50;99.90;;;;;;5053363;28;20613;-74
2022/07/15 13:39:24;;;;;;;4.60;1.23;;;20.60;99.90;;;;;;5054469;28;20176;-74
